Prievidza, Slovakia

1:01 PM CEST on June 30, 2015 (GMT +0200)
IBBSKLUT2 | | Change Station
CLOSE
Current Station
Personal Weather Station
Location: Lutila, Ziar and Hronom
Elevation: 1152 ft
Nearby Weather Stations

Elev 1152 ft 48.62 °N, 18.85 °E | Updated 13 minutes ago

Partly Cloudy
Partly Cloudy
75.4 °F
Feels Like 78 °F
N
6.0
Wind Variable Wind from West
Gusts 12.0 mph

Today
High -- | Low -- °F
--% Chance of Precip.
Yesterday
High -- | Low -- °F
Precip. -- in
4:45 AM 8:52 PM
Waxing Gibbous, 97% visible
Pressure 30.15 in
Visibility 6.2 miles
Clouds Few 4400 ft
Heat Index 78 °F
Dew Point 51 °F
Humidity 43%
Rainfall in
Snow Depth Not available.
UV 10 out of 12
Pollen Not available.
Air Quality Not available.
Flu Activity Not available.
METAR LZZI 301000Z 33003KT 290V010 9999 FEW044 23/12 Q1021

More Conditions Fewer Conditions

Pressure 30.15 in
Visibility 6.2 miles
Clouds Few 4400 ft
Heat Index 78 °F
Dew Point 51 °F
Humidity 43%
Rainfall in
Snow Depth Not available.
UV 10 out of 12
Pollen Not available.
Air Quality Not available.
Flu Activity Not available.
METAR LZZI 301000Z 33003KT 290V010 9999 FEW044 23/12 Q1021

More Conditions Fewer Conditions

10-Day Weather Forecast

×

Almanac

Astronomy

Jun. 30, 2015 Rise Set
Actual Time
Civil Twilight
Nautical Twilight
Astronomical Twilight
Moon
Length of Visible Light
Length of Day
Tomorrow will be .
, % of the Moon is Illuminated

Today's Extremes

Country Highs Country Lows

Community

WunderPhotos

Upload Photos

1,833,975 photos uploaded!

WunderBlogs® & News

Nearby

Air Quality

  Air Quality AQ Index Pollutant
Not available.

Snow Depth

Station Depth Elevation

Earthquake Activity

City Distance Mag. Time & Date
Minimum magnitude displayed is 2.5.

Coastal Water Temperatures

Place Temperature

Stations

Nearby Weather Stations

Station Location Temp. Windchill Dew Point Humidity Wind Precip. Elev Updated Type